Time;durP1;ratioP1;P1;durP2;ratioP2;P2;SDS_P1;SDS_P2;PMS_P1;PMS_P2;Temp;Humidity;BMP_temperature;BMP_pressure;BME280_temperature;BME280_humidity;BME280_pressure;Samples;Min_cycle;Max_cycle;Signal;HPM_P1;HPM_P2
2022/11/25 00:01:21;;;;;;;31.45;19.52;;;;;;;10.36;70.03;101402.50;4978381;28;20136;-77
2022/11/25 00:03:48;;;;;;;34.75;17.33;;;;;;;11.06;70.40;101395.41;4985128;28;20069;-78
2022/11/25 00:06:18;;;;;;;32.35;18.48;;;;;;;11.48;68.73;101392.97;4984104;28;20694;-78
2022/11/25 00:08:48;;;;;;;29.30;20.20;;;;;;;11.21;65.95;101383.56;4985338;28;20102;-79
2022/11/25 00:11:16;;;;;;;36.80;19.80;;;;;;;10.83;66.20;101383.94;4985489;28;20089;-78
2022/11/25 00:13:45;;;;;;;32.90;21.00;;;;;;;10.20;66.96;101338.28;4985165;28;20557;-78
2022/11/25 00:16:25;;;;;;;29.67;18.48;;;;;;;10.20;68.87;101386.03;4984752;28;20049;-77
2022/11/25 00:18:53;;;;;;;26.85;17.85;;;;;;;10.47;70.22;101394.59;4985624;28;20562;-77
2022/11/25 00:21:24;;;;;;;28.63;18.10;;;;;;;10.96;69.67;101383.81;4987097;28;20972;-80
2022/11/25 00:23:52;;;;;;;32.58;17.63;;;;;;;11.32;68.27;101386.22;4986698;28;20366;-80
2022/11/25 00:26:20;;;;;;;28.95;16.92;;;;;;;11.48;67.18;101372.56;4985731;28;20457;-78
2022/11/25 00:28:53;;;;;;;32.13;18.20;;;;;;;11.12;66.69;101315.22;4983553;28;20672;-77
2022/11/25 00:31:25;;;;;;;25.50;17.35;;;;;;;11.23;67.22;101360.38;4985865;28;20500;-79
2022/11/25 00:33:53;;;;;;;23.85;15.90;;;;;;;11.36;66.96;101370.03;4992861;28;20519;-78
2022/11/25 00:36:34;;;;;;;29.23;16.13;;;;;;;11.28;66.75;101304.19;4982471;28;20049;-79
2022/11/25 00:39:10;;;;;;;27.13;16.83;;;;;;;12.15;66.12;101381.34;4982553;28;20261;-77
2022/11/25 00:44:35;;;;;;;28.10;18.50;;;;;;;12.01;63.14;101352.38;4984353;28;20333;-77
2022/11/25 00:47:15;;;;;;;24.60;16.20;;;;;;;12.01;65.46;101337.22;4982193;28;20060;-77
2022/11/25 00:49:52;;;;;;;28.48;16.88;;;;;;;11.82;64.75;101278.50;4983125;28;20575;-79
2022/11/25 00:52:26;;;;;;;29.20;17.00;;;;;;;12.18;64.76;101383.75;4969380;28;20053;-78
2022/11/25 00:54:54;;;;;;;28.05;17.10;;;;;;;12.12;65.43;101381.59;4986104;28;20139;-78
2022/11/25 00:57:34;;;;;;;24.65;16.25;;;;;;;12.38;65.09;101385.59;4983472;28;20136;-78
2022/11/25 01:00:02;;;;;;;26.85;14.88;;;;;;;12.53;63.80;101340.84;4984722;28;20632;-77
2022/11/25 01:02:30;;;;;;;25.67;14.85;;;;;;;12.63;63.64;101362.19;4992787;28;20312;-77
2022/11/25 01:04:59;;;;;;;22.10;14.38;;;;;;;13.02;63.16;101392.56;4982961;28;20147;-79
2022/11/25 01:07:34;;;;;;;21.92;14.18;;;;;;;13.13;62.80;101396.09;4985337;28;20053;-79
2022/11/25 01:10:03;;;;;;;25.45;14.90;;;;;;;13.03;62.34;101391.59;4984595;28;20418;-78
2022/11/25 01:12:31;;;;;;;15.75;11.00;;;;;;;12.74;60.11;101401.22;4982246;28;20057;-79
2022/11/25 01:14:57;;;;;;;24.50;13.90;;;;;;;12.33;62.61;101400.25;4983803;28;20050;-77
2022/11/25 01:17:27;;;;;;;19.80;12.13;;;;;;;12.06;63.42;101379.44;4982563;28;20293;-80
2022/11/25 01:19:54;;;;;;;19.20;12.52;;;;;;;11.97;63.13;101386.38;4981608;28;20151;-80
2022/11/25 01:22:22;;;;;;;18.88;11.95;;;;;;;11.78;63.64;101408.28;4982116;28;20058;-80
2022/11/25 01:24:53;;;;;;;15.55;10.93;;;;;;;11.25;62.24;101400.97;4982556;28;20057;-78
2022/11/25 01:27:20;;;;;;;17.38;11.68;;;;;;;11.10;67.10;101412.81;4982085;28;20089;-78
2022/11/25 01:29:48;;;;;;;16.85;11.73;;;;;;;10.93;66.86;101389.38;4981998;28;20128;-77
2022/11/25 01:32:16;;;;;;;18.13;11.18;;;;;;;11.09;64.91;101405.78;4991096;28;20061;-77
2022/11/25 01:34:48;;;;;;;17.70;12.10;;;;;;;10.87;67.58;101401.31;4984209;28;20050;-76
2022/11/25 01:37:20;;;;;;;18.52;12.07;;;;;;;10.35;65.18;101318.56;4982669;28;20572;-78
2022/11/25 01:39:48;;;;;;;17.88;11.30;;;;;;;10.67;66.24;101405.50;4981293;28;20062;-78
2022/11/25 01:42:21;;;;;;;16.20;10.93;;;;;;;11.29;67.67;101404.25;4982849;28;20058;-78
2022/11/25 01:45:25;;;;;;;16.02;10.98;;;;;;;11.95;66.12;101404.28;4982836;28;20535;-78
2022/11/25 01:48:04;;;;;;;17.83;10.18;;;;;;;12.12;64.52;101363.81;4984255;28;20278;-77
2022/11/25 01:50:32;;;;;;;16.42;9.85;;;;;;;12.03;61.26;101396.50;4981539;28;20581;-78
2022/11/25 01:53:05;;;;;;;14.43;10.23;;;;;;;11.05;61.69;101356.53;4981713;28;20054;-78
2022/11/25 01:55:35;;;;;;;20.17;10.98;;;;;;;10.60;62.93;101388.34;4980927;28;20606;-79
2022/11/25 01:58:13;;;;;;;18.20;10.98;;;;;;;9.52;64.73;101332.69;4976269;28;20050;-80
2022/11/25 02:00:42;;;;;;;17.88;10.75;;;;;;;9.25;67.44;101350.53;4975807;28;20064;-80
2022/11/25 02:03:12;;;;;;;19.65;11.43;;;;;;;9.69;69.60;101429.53;4979193;28;20062;-78
2022/11/25 02:06:14;;;;;;;20.48;11.30;;;;;;;9.69;71.39;101434.00;4981297;28;21109;-78
2022/11/25 02:08:48;;;;;;;16.98;10.75;;;;;;;9.76;71.28;101392.81;4980999;28;20050;-78
2022/11/25 02:11:26;;;;;;;14.38;9.30;;;;;;;10.30;70.61;101410.94;4982666;28;20104;-78
2022/11/25 02:13:55;;;;;;;18.60;10.23;;;;;;;10.87;68.46;101341.09;4982899;28;20057;-76
2022/11/25 02:16:24;;;;;;;14.67;9.77;;;;;;;11.99;65.75;101379.13;4983494;28;20046;-78
2022/11/25 02:18:52;;;;;;;16.60;10.80;;;;;;;11.98;62.58;101398.69;4983685;28;20310;-78
2022/11/25 02:21:44;;;;;;;18.00;10.63;;;;;;;11.25;62.87;101400.97;4981271;28;20046;-79
2022/11/25 02:24:55;;;;;;;22.75;12.50;;;;;;;10.13;64.23;101327.28;4980454;28;20053;-78
2022/11/25 02:27:27;;;;;;;24.23;12.95;;;;;;;10.06;65.96;101418.91;4980461;28;20046;-78
2022/11/25 02:29:55;;;;;;;31.23;14.90;;;;;;;9.56;66.82;101403.06;4979772;28;20063;-79
2022/11/25 02:32:26;;;;;;;20.23;11.05;;;;;;;9.30;68.30;101389.03;4989630;28;20140;-78
2022/11/25 02:34:55;;;;;;;17.67;11.05;;;;;;;9.67;70.58;101383.72;4983700;28;20120;-79
2022/11/25 02:37:27;;;;;;;24.17;12.65;;;;;;;9.96;70.27;101351.56;4982492;28;20049;-79
2022/11/25 02:39:54;;;;;;;26.30;12.15;;;;;;;10.32;67.30;101427.63;4981711;28;20054;-80
2022/11/25 02:42:23;;;;;;;17.55;10.85;;;;;;;9.99;67.84;101426.44;4980740;28;20076;-77
2022/11/25 02:44:53;;;;;;;18.25;9.85;;;;;;;9.67;68.01;101398.78;4982020;28;20065;-80
2022/11/25 02:47:19;;;;;;;19.20;10.57;;;;;;;9.80;70.79;101416.34;4979110;28;20050;-79
2022/11/25 02:49:49;;;;;;;17.00;10.55;;;;;;;9.77;68.77;101423.69;4980087;28;20144;-79
2022/11/25 02:52:18;;;;;;;28.17;13.45;;;;;;;9.05;68.96;101347.50;4978690;28;20061;-80
2022/11/25 02:54:48;;;;;;;64.07;23.27;;;;;;;9.19;71.43;101368.56;4978944;28;20046;-78
2022/11/25 02:57:16;;;;;;;23.52;13.05;;;;;;;9.51;70.39;101386.63;4982025;28;20131;-81
2022/11/25 02:59:46;;;;;;;29.70;13.48;;;;;;;9.71;68.50;101456.78;4984313;28;20414;-79
2022/11/25 03:02:16;;;;;;;33.90;15.63;;;;;;;9.44;69.15;101472.84;4987997;28;20068;-77
2022/11/25 03:04:44;;;;;;;17.35;11.05;;;;;;;9.50;69.53;101479.53;5002370;28;20045;-80
2022/11/25 03:07:12;;;;;;;19.00;12.65;;;;;;;9.39;69.05;101482.91;5000593;28;20056;-79
2022/11/25 03:09:42;;;;;;;15.00;11.13;;;;;;;9.41;69.17;101479.19;4999683;28;20575;-80
2022/11/25 03:12:19;;;;;;;19.60;13.27;;;;;;;9.51;70.19;101475.91;4985417;28;20535;-79
2022/11/25 03:14:54;;;;;;;18.85;12.52;;;;;;;9.97;70.49;101486.72;5002629;28;20160;-79
2022/11/25 03:17:27;;;;;;;24.23;13.55;;;;;;;9.78;69.38;101454.53;5003565;28;20143;-80
2022/11/25 03:20:02;;;;;;;20.70;11.05;;;;;;;10.03;69.01;101485.44;5001722;28;20091;-78
2022/11/25 03:22:43;;;;;;;21.83;12.45;;;;;;;10.21;67.93;101491.22;5000438;28;20049;-78
2022/11/25 03:25:12;;;;;;;19.25;12.30;;;;;;;10.13;66.85;101506.84;4998897;28;20159;-79
2022/11/25 03:27:47;;;;;;;21.30;11.43;;;;;;;9.75;70.01;101470.66;5002226;28;20084;-79
2022/11/25 03:30:20;;;;;;;25.85;14.68;;;;;;;9.69;67.66;101412.78;5005583;28;20053;-79
2022/11/25 03:33:04;;;;;;;22.45;13.35;;;;;;;10.04;65.69;101503.06;5011981;28;20523;-79
2022/11/25 03:35:31;;;;;;;25.02;14.07;;;;;;;9.59;66.84;101503.59;5003514;28;20501;-79
2022/11/25 03:38:00;;;;;;;22.55;14.48;;;;;;;9.00;66.70;101452.94;4988997;28;20148;-79
2022/11/25 03:40:36;;;;;;;;;;;;;;;8.75;68.00;101457.25;4989770;28;20753;-78
2022/11/25 03:43:07;;;;;;;22.80;15.82;;;;;;;8.80;68.69;101499.31;4988693;28;20443;-77
2022/11/25 03:45:37;;;;;;;21.80;13.48;;;;;;;9.01;70.87;101489.06;4988118;28;20584;-79
2022/11/25 03:48:09;;;;;;;31.15;18.00;;;;;;;9.09;69.02;101504.44;4988267;28;20107;-79
2022/11/25 03:50:37;;;;;;;28.17;17.80;;;;;;;8.96;67.82;101504.44;4989004;28;20049;-78
2022/11/25 03:53:08;;;;;;;22.27;15.43;;;;;;;8.80;71.02;101487.88;4989946;28;20189;-79
2022/11/25 03:55:35;;;;;;;22.58;15.88;;;;;;;9.22;68.33;101538.88;4987964;28;20108;-79
2022/11/25 03:58:02;;;;;;;21.13;14.15;;;;;;;9.32;68.19;101521.38;4985138;28;20084;-78
2022/11/25 04:00:30;;;;;;;23.05;14.30;;;;;;;9.33;66.09;101517.81;4983384;28;20060;-78
2022/11/25 04:03:01;;;;;;;18.23;14.07;;;;;;;9.49;65.48;101534.34;4987962;28;20156;-77
2022/11/25 04:05:37;;;;;;;22.15;14.75;;;;;;;9.36;66.35;101513.13;5005482;28;20274;-78
2022/11/25 04:08:10;;;;;;;21.08;14.85;;;;;;;9.46;66.95;101539.84;4988791;28;20563;-78
2022/11/25 04:10:45;;;;;;;23.98;15.70;;;;;;;9.50;67.90;101530.72;4988909;28;20481;-79
2022/11/25 04:13:13;;;;;;;18.42;14.07;;;;;;;9.40;65.39;101534.97;4987032;28;20060;-79
2022/11/25 04:15:47;;;;;;;17.63;12.10;;;;;;;9.17;65.77;101526.81;4986274;28;20049;-79
2022/11/25 04:18:24;;;;;;;18.30;13.80;;;;;;;9.25;66.95;101542.19;4972119;28;20520;-79
2022/11/25 04:21:21;;;;;;;24.58;14.90;;;;;;;9.42;66.68;101543.69;4988010;28;20053;-77
2022/11/25 04:23:49;;;;;;;18.95;13.23;;;;;;;8.72;66.29;101433.66;4986903;28;20111;-78
2022/11/25 04:26:21;;;;;;;23.58;14.80;;;;;;;9.11;64.77;101547.56;4985918;28;20448;-79
2022/11/25 04:28:57;;;;;;;20.52;12.38;;;;;;;8.88;65.91;101533.22;4989274;28;20057;-77
2022/11/25 04:31:30;;;;;;;19.45;13.05;;;;;;;8.63;66.51;101492.50;4989423;28;20068;-80
2022/11/25 04:33:59;;;;;;;17.92;12.93;;;;;;;8.91;67.62;101533.88;4985538;28;20220;-77
2022/11/25 04:36:26;;;;;;;23.85;16.80;;;;;;;8.95;65.51;101553.03;5003715;28;20334;-79
2022/11/25 04:38:55;;;;;;;23.60;16.50;;;;;;;8.70;65.52;101546.72;4985704;28;20156;-80
2022/11/25 04:41:23;;;;;;;27.45;16.20;;;;;;;8.14;66.85;101508.91;4983977;28;20075;-79
2022/11/25 04:43:49;;;;;;;21.73;15.60;;;;;;;8.23;67.90;101548.00;4983968;28;21004;-79
2022/11/25 04:46:18;;;;;;;28.90;17.30;;;;;;;8.10;67.60;101550.56;5001994;28;20076;-80
2022/11/25 04:48:45;;;;;;;25.55;17.00;;;;;;;8.11;69.11;101544.34;4999970;28;20057;-78
2022/11/25 04:51:13;;;;;;;22.23;15.50;;;;;;;8.21;69.89;101527.88;4983410;28;20140;-79
2022/11/25 04:53:39;;;;;;;24.13;14.93;;;;;;;8.44;70.39;101518.47;4984548;28;20095;-78
2022/11/25 04:56:18;;;;;;;28.83;17.13;;;;;;;8.73;70.26;101520.03;4987327;28;20122;-78
2022/11/25 05:01:31;;;;;;;20.95;12.82;;;;;;;8.91;69.40;101506.53;4984152;28;20054;-78
2022/11/25 05:03:58;;;;;;;23.65;15.73;;;;;;;9.49;70.00;101523.75;4984736;28;20065;-79
2022/11/25 05:06:28;;;;;;;23.77;15.40;;;;;;;9.66;68.51;101530.53;4985623;28;20183;-79
2022/11/25 05:08:58;;;;;;;20.10;14.20;;;;;;;9.67;67.99;101537.50;4984009;28;20119;-76
2022/11/25 05:11:27;;;;;;;26.40;18.30;;;;;;;9.59;68.46;101498.28;4985018;28;20057;-79
2022/11/25 05:13:55;;;;;;;20.27;13.52;;;;;;;9.77;67.32;101527.09;4983517;28;20479;-77
2022/11/25 05:16:25;;;;;;;22.05;14.80;;;;;;;9.70;68.86;101430.38;4983879;28;20587;-78
2022/11/25 05:18:55;;;;;;;30.20;17.30;;;;;;;10.06;67.27;101485.22;4984906;28;20101;-77
2022/11/25 05:21:22;;;;;;;31.02;15.32;;;;;;;10.42;68.05;101513.56;4984948;28;20445;-78
2022/11/25 05:23:49;;;;;;;26.88;16.75;;;;;;;9.54;64.11;101404.97;4984627;28;20049;-77
2022/11/25 05:26:21;;;;;;;;;;;;;;;9.72;63.53;101531.88;4987104;28;20064;-77
2022/11/25 05:28:48;;;;;;;23.27;16.67;;;;;;;9.26;66.68;101527.13;4986559;28;19932;-77
2022/11/25 05:31:14;;;;;;;43.72;25.02;;;;;;;9.24;68.30;101518.44;4985735;28;20529;-79
2022/11/25 05:33:44;;;;;;;34.95;20.67;;;;;;;9.08;67.55;101519.50;5005399;28;20480;-78
2022/11/25 05:36:11;;;;;;;30.52;17.70;;;;;;;9.24;68.66;101531.69;5005556;28;20406;-79
2022/11/25 05:38:38;;;;;;;29.58;17.70;;;;;;;8.94;68.62;101480.69;5005439;28;20230;-77
2022/11/25 05:41:06;;;;;;;28.67;15.50;;;;;;;9.29;70.14;101526.91;5004665;28;20052;-77
2022/11/25 05:43:37;;;;;;;22.77;15.52;;;;;;;9.15;70.62;101436.00;5004292;28;20484;-79
2022/11/25 05:46:07;;;;;;;23.48;13.75;;;;;;;10.27;69.47;101522.63;5006177;28;20427;-80
2022/11/25 05:48:34;;;;;;;29.83;18.52;;;;;;;10.59;67.83;101514.13;5004768;28;20051;-78
2022/11/25 05:51:22;;;;;;;25.10;15.43;;;;;;;10.53;66.42;101517.22;5004276;28;20099;-77
2022/11/25 05:53:49;;;;;;;24.30;15.80;;;;;;;10.51;67.32;101521.78;5006390;28;20048;-79
2022/11/25 05:56:20;;;;;;;24.73;15.38;;;;;;;10.58;68.19;101528.34;5000403;28;20402;-78
2022/11/25 05:58:48;;;;;;;20.38;14.65;;;;;;;10.21;68.25;101440.78;4993573;28;20088;-79
2022/11/25 06:01:16;;;;;;;24.80;13.98;;;;;;;10.94;67.38;101486.69;5002964;28;20061;-77
2022/11/25 06:03:43;;;;;;;36.42;28.38;;;;;;;11.21;65.45;101513.81;4981652;28;20200;-78
2022/11/25 06:06:11;;;;;;;34.40;21.45;;;;;;;10.78;63.35;101492.34;4980892;28;20060;-78
2022/11/25 06:08:39;;;;;;;33.08;21.30;;;;;;;10.55;63.51;101533.88;4981697;28;20057;-77
2022/11/25 06:11:10;;;;;;;29.27;20.40;;;;;;;10.10;65.21;101529.16;4980946;28;20373;-77
2022/11/25 06:13:43;;;;;;;21.25;16.23;;;;;;;10.21;68.37;101512.44;4966126;28;20454;-77
2022/11/25 06:16:17;;;;;;;23.48;16.08;;;;;;;10.61;67.46;101494.47;4981826;28;20132;-78
2022/11/25 06:18:45;;;;;;;31.17;18.45;;;;;;;10.53;63.70;101530.50;4981169;28;20054;-77
2022/11/25 06:21:19;;;;;;;28.90;18.90;;;;;;;9.95;64.22;101509.00;4979913;28;20050;-77
2022/11/25 06:23:47;;;;;;;32.58;21.27;;;;;;;9.52;66.42;101491.72;4981168;28;20124;-76
2022/11/25 06:26:17;;;;;;;32.22;18.60;;;;;;;9.66;67.50;101521.69;4980928;28;20143;-77
2022/11/25 06:28:44;;;;;;;33.22;18.95;;;;;;;9.51;68.20;101495.31;4984760;28;20491;-76
2022/11/25 06:31:14;;;;;;;33.58;20.55;;;;;;;9.47;67.44;101493.84;5001003;28;20053;-78
2022/11/25 06:33:45;;;;;;;30.38;19.58;;;;;;;9.07;66.43;101472.75;4973683;28;20663;-78
2022/11/25 06:36:16;;;;;;;28.53;19.07;;;;;;;9.02;68.67;101505.81;4963862;28;20884;-78
2022/11/25 06:38:44;;;;;;;29.08;17.05;;;;;;;9.07;70.37;101488.63;4961048;28;20050;-79
2022/11/25 06:41:14;;;;;;;28.92;17.27;;;;;;;9.80;70.49;101500.34;4959632;28;20529;-79
2022/11/25 06:43:43;;;;;;;31.27;19.95;;;;;;;10.05;68.15;101499.47;4976579;28;20578;-79
2022/11/25 06:46:15;;;;;;;30.80;20.33;;;;;;;8.24;65.75;101244.63;4979554;28;20691;-79
2022/11/25 06:48:50;;;;;;;36.50;20.90;;;;;;;9.04;66.39;101433.22;4982647;28;20070;-78
2022/11/25 06:51:20;;;;;;;32.72;19.45;;;;;;;8.89;69.33;101442.25;4982152;28;20139;-77
2022/11/25 06:53:47;;;;;;;30.05;22.05;;;;;;;9.23;68.34;101514.09;4992333;28;20421;-78
2022/11/25 06:56:27;;;;;;;34.67;21.05;;;;;;;8.95;69.35;101465.63;4960203;28;20493;-78
2022/11/25 06:58:57;;;;;;;30.98;20.85;;;;;;;9.35;68.87;101537.94;4969755;28;20058;-79
2022/11/25 07:01:30;;;;;;;35.10;21.33;;;;;;;9.46;68.60;101544.28;4980363;28;20054;-77
2022/11/25 07:07:12;;;;;;;28.00;19.55;;;;;;;8.94;67.89;101554.00;4983699;28;20498;-77
2022/11/25 07:09:48;;;;;;;27.30;19.80;;;;;;;8.54;70.10;101530.16;4978449;28;20599;-78
2022/11/25 07:12:14;;;;;;;24.65;17.20;;;;;;;8.42;70.94;101499.19;4982954;28;20552;-78
2022/11/25 07:14:41;;;;;;;26.85;16.52;;;;;;;8.99;71.00;101583.66;4983639;28;20574;-78
2022/11/25 07:17:08;;;;;;;25.30;17.58;;;;;;;8.82;70.84;101555.66;4984301;28;20088;-78
2022/11/25 07:19:44;;;;;;;33.03;17.88;;;;;;;8.53;70.33;101525.81;4983665;28;20186;-79
2022/11/25 07:22:13;;;;;;;26.33;16.30;;;;;;;9.10;71.92;101604.13;4968842;28;20206;-77
2022/11/25 07:24:43;;;;;;;21.23;15.48;;;;;;;9.38;71.40;101611.09;4984800;28;20666;-79
2022/11/25 07:27:12;;;;;;;22.55;16.25;;;;;;;9.29;70.99;101561.34;4982791;28;20291;-76
2022/11/25 07:29:39;;;;;;;30.77;18.15;;;;;;;9.71;70.16;101613.25;4982935;28;20042;-77
2022/11/25 07:32:26;;;;;;;32.88;21.25;;;;;;;9.89;69.45;101619.06;4990768;28;20053;-80
2022/11/25 07:34:53;;;;;;;40.00;21.02;;;;;;;9.72;68.94;101580.44;4994184;28;20615;-79
2022/11/25 07:37:24;;;;;;;32.65;18.38;;;;;;;9.92;68.62;101597.63;4980297;28;20727;-79
2022/11/25 07:39:51;;;;;;;29.60;16.33;;;;;;;10.00;69.49;101600.59;4987264;28;20068;-78
2022/11/25 07:42:21;;;;;;;26.75;18.83;;;;;;;10.02;67.59;101593.38;4999282;28;20046;-78
2022/11/25 07:44:48;;;;;;;25.73;19.35;;;;;;;9.77;67.87;101570.38;4984026;28;20042;-78
2022/11/25 07:47:15;;;;;;;36.42;23.15;;;;;;;9.95;67.75;101605.38;4983484;28;20151;-78
2022/11/25 07:49:43;;;;;;;38.13;20.92;;;;;;;9.93;68.93;101590.53;4982577;28;20042;-79
2022/11/25 07:52:10;;;;;;;32.33;21.23;;;;;;;9.24;67.51;101478.69;4979398;28;20062;-78
2022/11/25 07:54:40;;;;;;;30.75;21.02;;;;;;;9.99;67.61;101611.31;4983492;28;20049;-78
2022/11/25 07:57:08;;;;;;;33.53;20.50;;;;;;;9.77;65.14;101583.63;4980890;28;20730;-77
2022/11/25 07:59:40;;;;;;;39.17;21.27;;;;;;;9.49;65.96;101591.78;4978296;28;20049;-78
2022/11/25 08:02:09;;;;;;;30.08;18.95;;;;;;;9.35;67.28;101600.69;4965545;28;20066;-80
2022/11/25 08:04:37;;;;;;;29.08;19.63;;;;;;;9.39;67.61;101607.47;4978652;28;20081;-78
2022/11/25 08:07:04;;;;;;;27.42;20.17;;;;;;;9.37;68.60;101594.34;4977294;28;20385;-79
2022/11/25 08:09:32;;;;;;;32.97;18.73;;;;;;;9.37;67.41;101612.91;4962934;28;20058;-76
2022/11/25 08:12:00;;;;;;;29.27;18.92;;;;;;;9.54;68.76;101593.19;4964711;28;20045;-78
2022/11/25 08:14:27;;;;;;;26.55;17.77;;;;;;;10.17;68.95;101611.78;4981790;28;20046;-78
2022/11/25 08:16:53;;;;;;;28.75;17.45;;;;;;;10.17;65.39;101631.25;4979487;28;20373;-78
2022/11/25 08:19:23;;;;;;;27.25;15.98;;;;;;;10.02;66.55;101633.16;4978589;28;20058;-77
2022/11/25 08:21:56;;;;;;;28.90;18.60;;;;;;;9.85;65.33;101612.25;4979823;28;20560;-76
2022/11/25 08:24:27;;;;;;;29.15;18.48;;;;;;;10.09;67.98;101628.25;4980863;28;20089;-79
2022/11/25 08:27:00;;;;;;;24.95;16.13;;;;;;;10.14;68.18;101594.28;4981147;28;20260;-77
2022/11/25 08:29:28;;;;;;;24.25;14.90;;;;;;;10.33;67.20;101609.78;4978181;28;20144;-78
2022/11/25 08:31:58;;;;;;;29.42;17.98;;;;;;;10.38;65.29;101606.78;4982892;28;20521;-78
2022/11/25 08:34:26;;;;;;;22.08;16.17;;;;;;;10.51;64.64;101641.25;4999316;28;20045;-78
2022/11/25 08:36:53;;;;;;;25.85;18.15;;;;;;;10.22;64.37;101625.59;4998432;28;20060;-78
2022/11/25 08:39:21;;;;;;;23.13;16.77;;;;;;;10.08;64.86;101615.13;4998586;28;20068;-78
2022/11/25 08:42:17;;;;;;;31.52;17.45;;;;;;;10.00;65.67;101619.16;4993855;28;20499;-80
2022/11/25 08:44:44;;;;;;;25.88;17.08;;;;;;;10.16;67.11;101640.13;4979349;28;20165;-77
2022/11/25 08:47:11;;;;;;;27.52;17.75;;;;;;;10.09;65.91;101632.72;4981535;28;20321;-78
2022/11/25 08:49:52;;;;;;;27.50;17.60;;;;;;;10.08;65.64;101633.69;4980237;28;20910;-78
2022/11/25 08:52:32;;;;;;;29.40;20.73;;;;;;;9.85;65.04;101561.88;4979944;28;20418;-77
2022/11/25 08:55:03;;;;;;;33.28;21.58;;;;;;;10.02;65.33;101550.94;4981680;28;20081;-78
2022/11/25 08:57:30;;;;;;;29.88;20.13;;;;;;;10.60;64.08;101645.91;4981539;28;20062;-79
2022/11/25 09:00:08;;;;;;;37.17;21.80;;;;;;;10.51;63.36;101622.69;4982591;28;20061;-78
2022/11/25 09:02:41;;;;;;;35.40;20.50;;;;;;;10.69;62.59;101647.91;4981306;28;20061;-78
2022/11/25 09:05:22;;;;;;;46.03;24.42;;;;;;;10.59;60.85;101652.19;4980907;28;20112;-77
2022/11/25 09:07:50;;;;;;;47.65;27.23;;;;;;;10.07;63.51;101539.97;4981041;28;20057;-77
2022/11/25 09:10:22;;;;;;;39.38;27.58;;;;;;;10.65;61.25;101631.34;4981983;28;20057;-78
2022/11/25 09:12:50;;;;;;;35.50;24.17;;;;;;;10.54;61.91;101617.16;4978499;28;20060;-79
2022/11/25 09:15:18;;;;;;;44.60;31.88;;;;;;;10.62;61.21;101646.66;4980453;28;20061;-78
2022/11/25 09:17:46;;;;;;;50.95;34.25;;;;;;;10.56;61.10;101653.28;4979479;28;20149;-79
2022/11/25 09:20:18;;;;;;;55.38;32.20;;;;;;;10.56;61.20;101652.41;4983136;28;20046;-78
2022/11/25 09:22:46;;;;;;;38.22;29.17;;;;;;;10.36;62.32;101636.09;4980315;28;20171;-79
2022/11/25 09:25:15;;;;;;;47.35;31.98;;;;;;;10.52;62.42;101635.00;4980396;28;20061;-79
2022/11/25 09:27:42;;;;;;;32.28;21.77;;;;;;;10.86;64.41;101657.31;4980273;28;20116;-78
2022/11/25 09:30:09;;;;;;;39.08;25.15;;;;;;;11.15;64.39;101643.66;4979654;28;20143;-78
2022/11/25 09:32:39;;;;;;;35.38;21.88;;;;;;;11.30;63.96;101659.31;4989984;28;20191;-79
2022/11/25 09:35:10;;;;;;;37.38;25.90;;;;;;;11.47;63.65;101652.72;4997715;28;20412;-76
2022/11/25 09:37:37;;;;;;;33.88;19.85;;;;;;;11.62;63.88;101640.06;4998384;28;20099;-78
2022/11/25 09:40:31;;;;;;;28.70;19.58;;;;;;;12.06;63.18;101650.91;4999024;28;20100;-79
2022/11/25 09:46:44;;;;;;;37.38;22.10;;;;;;;12.32;62.44;101656.84;5004536;28;20049;-77
2022/11/25 09:49:50;;;;;;;25.50;19.83;;;;;;;12.33;62.26;101648.75;4999918;28;20045;-79
2022/11/25 09:53:22;;;;;;;28.35;19.90;;;;;;;12.07;62.95;101592.25;5002844;28;20435;-79
2022/11/25 09:55:53;;;;;;;39.38;27.77;;;;;;;12.27;61.53;101643.88;4944162;28;20320;-79
2022/11/25 09:58:49;;;;;;;43.85;28.73;;;;;;;12.24;59.46;101654.78;4959735;28;20050;-79
2022/11/25 10:01:21;;;;;;;48.10;33.60;;;;;;;12.06;60.11;101646.41;4983660;28;20517;-78
2022/11/25 10:04:12;;;;;;;51.45;31.10;;;;;;;12.05;61.17;101650.06;4991397;28;20064;-79
2022/11/25 10:06:53;;;;;;;30.73;22.40;;;;;;;12.05;62.56;101647.41;4980626;28;20058;-78
2022/11/25 10:09:33;;;;;;;37.40;25.33;;;;;;;11.78;60.42;101581.19;4981756;28;20053;-77
2022/11/25 10:12:28;;;;;;;59.25;41.38;;;;;;;12.05;59.95;101644.75;4980147;28;20508;-79
2022/11/25 10:15:09;;;;;;;48.53;32.60;;;;;;;12.21;62.12;101646.19;4978487;28;20132;-78
2022/11/25 10:17:48;;;;;;;69.90;41.60;;;;;;;12.15;61.45;101642.19;4980978;28;20429;-77
2022/11/25 10:20:32;;;;;;;41.45;26.65;;;;;;;12.29;62.12;101644.63;4979437;28;20049;-75
2022/11/25 10:23:20;;;;;;;63.78;41.42;;;;;;;11.69;61.46;101542.03;4980201;28;20521;-78
2022/11/25 10:26:01;;;;;;;36.45;25.00;;;;;;;12.40;62.21;101633.97;4991130;28;20136;-77
2022/11/25 10:28:33;;;;;;;34.97;23.63;;;;;;;12.52;61.74;101633.94;4978640;28;20045;-78
2022/11/25 10:31:05;;;;;;;39.20;26.65;;;;;;;11.85;61.40;101499.94;4979148;28;20478;-77
2022/11/25 10:33:57;;;;;;;35.50;23.20;;;;;;;12.44;61.54;101543.16;4994755;28;20091;-78
2022/11/25 10:36:36;;;;;;;61.30;39.03;;;;;;;12.62;58.18;101600.25;4980520;28;20060;-77
2022/11/25 10:39:25;;;;;;;47.33;30.75;;;;;;;12.35;60.57;101572.22;4981956;28;20204;-78
2022/11/25 10:42:00;;;;;;;63.70;41.38;;;;;;;12.17;59.64;101516.00;4979774;28;20062;-77
2022/11/25 10:44:35;;;;;;;64.95;40.00;;;;;;;12.32;58.70;101561.81;4979530;28;20053;-79
2022/11/25 10:47:25;;;;;;;65.80;37.42;;;;;;;12.37;59.21;101596.91;4978402;28;20136;-79
2022/11/25 10:50:22;;;;;;;55.65;35.08;;;;;;;12.43;61.17;101595.59;4995621;28;20061;-78
2022/11/25 10:53:10;;;;;;;59.97;40.40;;;;;;;12.51;61.21;101566.50;4979320;28;20058;-78
2022/11/25 10:55:37;;;;;;;50.90;29.77;;;;;;;12.62;60.05;101592.25;4978258;28;20057;-78
2022/11/25 10:58:29;;;;;;;36.63;26.42;;;;;;;12.88;61.12;101595.44;4974907;28;20156;-76
2022/11/25 11:01:06;;;;;;;44.55;27.38;;;;;;;13.32;59.99;101574.88;4978325;28;20061;-79
2022/11/25 11:03:36;;;;;;;43.17;29.48;;;;;;;13.17;59.98;101584.16;4956630;28;20236;-78
2022/11/25 11:06:26;;;;;;;41.25;27.60;;;;;;;13.23;60.19;101563.16;4965196;28;20681;-78
2022/11/25 11:08:53;;;;;;;41.95;27.17;;;;;;;13.70;59.50;101592.09;4977457;28;20065;-78
2022/11/25 11:11:22;;;;;;;39.40;27.00;;;;;;;13.54;59.84;101581.06;4980016;28;20050;-79
2022/11/25 11:14:28;;;;;;;39.13;26.40;;;;;;;13.85;59.67;101569.41;4980519;28;20058;-79
2022/11/25 11:16:56;;;;;;;44.28;27.58;;;;;;;13.70;59.74;101567.25;4974343;28;20057;-79
2022/11/25 11:19:29;;;;;;;39.08;26.45;;;;;;;13.83;59.36;101565.19;4981812;28;20041;-78
2022/11/25 11:22:14;;;;;;;46.47;29.75;;;;;;;13.39;58.81;101546.72;4979881;28;20502;-77
2022/11/25 11:24:41;;;;;;;55.10;33.63;;;;;;;13.41;59.98;101554.59;4980248;28;20046;-79
2022/11/25 11:27:24;;;;;;;46.38;30.60;;;;;;;13.09;60.32;101485.34;4980440;28;20525;-80
2022/11/25 11:30:30;;;;;;;44.75;28.35;;;;;;;13.44;59.90;101523.16;4979833;28;20061;-79
2022/11/25 11:33:04;;;;;;;47.63;27.58;;;;;;;13.44;60.38;101551.66;4994497;28;20426;-79
2022/11/25 11:35:49;;;;;;;49.15;29.88;;;;;;;13.13;60.72;101534.72;4996469;28;20046;-79
2022/11/25 11:38:16;;;;;;;45.40;29.20;;;;;;;13.23;60.48;101543.66;4979618;28;20050;-79
2022/11/25 11:40:51;;;;;;;69.55;44.17;;;;;;;13.10;60.33;101545.66;4995108;28;20045;-79
2022/11/25 11:43:55;;;;;;;61.38;36.47;;;;;;;12.84;61.45;101516.75;4980875;28;20200;-80
2022/11/25 11:46:49;;;;;;;38.50;28.55;;;;;;;13.05;61.86;101538.88;4922611;28;20067;-78
2022/11/25 11:49:41;;;;;;;48.50;30.20;;;;;;;13.01;61.42;101537.47;4975719;28;20130;-75
2022/11/25 11:52:29;;;;;;;63.17;40.50;;;;;;;12.45;60.97;101444.50;4978623;28;20049;-80
2022/11/25 11:55:20;;;;;;;58.60;38.05;;;;;;;12.87;61.62;101496.97;4979456;28;20155;-78